createdAt,value
2023-05-22T00:00:40.671Z,98.59
2023-05-22T00:01:40.460Z,98.29
2023-05-22T00:02:40.459Z,98.19
2023-05-22T00:03:40.443Z,98.19
2023-05-22T00:04:40.426Z,98.09
2023-05-22T00:05:40.446Z,98.09
2023-05-22T00:06:40.378Z,97.99
2023-05-22T00:07:40.370Z,97.99
2023-05-22T00:08:40.334Z,97.89
2023-05-22T00:09:40.349Z,97.89
2023-05-22T00:10:40.531Z,97.78
2023-05-22T00:11:40.330Z,97.78
2023-05-22T00:12:40.323Z,97.78
2023-05-22T00:13:40.324Z,97.69
2023-05-22T00:14:40.287Z,97.69
2023-05-22T00:15:40.288Z,97.78
2023-05-22T00:16:40.334Z,97.69
2023-05-22T00:17:40.273Z,97.58
2023-05-22T00:18:40.231Z,97.58
2023-05-22T00:19:40.205Z,97.49
2023-05-22T00:20:40.332Z,97.49
2023-05-22T00:21:40.168Z,97.38
2023-05-22T00:22:40.178Z,97.38
2023-05-22T00:23:40.262Z,97.38
2023-05-22T00:24:40.142Z,97.38
2023-05-22T00:25:40.182Z,97.18
2023-05-22T00:26:40.108Z,97.18
2023-05-22T00:27:40.183Z,96.88
2023-05-22T00:28:40.099Z,96.78
2023-05-22T00:29:40.132Z,96.78
2023-05-22T00:30:40.256Z,96.78
2023-05-22T00:31:40.060Z,96.88
2023-05-22T00:32:40.057Z,96.78
2023-05-22T00:33:40.017Z,96.17
2023-05-22T00:34:40.111Z,95.67
2023-05-22T00:35:40.024Z,95.57
2023-05-22T00:36:39.969Z,94.96
2023-05-22T00:37:39.993Z,94.72
2023-05-22T00:38:39.978Z,94.01
2023-05-22T00:39:39.946Z,93.91
2023-05-22T00:40:40.163Z,93.41
2023-05-22T00:41:39.966Z,93.31
2023-05-22T00:42:39.919Z,93.21
2023-05-22T00:43:39.890Z,93.11
2023-05-22T00:44:39.892Z,92.96
2023-05-22T00:45:39.891Z,92.91
2023-05-22T00:46:39.870Z,92.91
2023-05-22T00:47:39.861Z,92.91
2023-05-22T00:48:39.877Z,93.01
2023-05-22T00:49:39.817Z,92.71
2023-05-22T00:50:40.066Z,92.10
2023-05-22T00:51:39.825Z,92.20
2023-05-22T00:52:39.777Z,91.90
2023-05-22T00:53:39.781Z,91.90
2023-05-22T00:54:39.744Z,91.90
2023-05-22T00:55:39.764Z,91.80
2023-05-22T00:56:39.713Z,91.80
2023-05-22T00:57:39.705Z,91.80
2023-05-22T00:58:39.706Z,91.70
2023-05-22T00:59:39.675Z,91.60
2023-05-22T01:00:39.894Z,91.39
2023-05-22T01:01:39.702Z,91.50
2023-05-22T01:02:39.773Z,91.39
2023-05-22T01:03:39.759Z,91.30
2023-05-22T01:04:39.622Z,91.30
2023-05-22T01:05:39.582Z,91.80
2023-05-22T01:06:39.570Z,92.40
2023-05-22T01:07:39.587Z,92.00
2023-05-22T01:08:39.667Z,92.30
2023-05-22T01:09:39.583Z,91.90
2023-05-22T01:10:39.724Z,92.00
2023-05-22T01:11:39.542Z,92.00
2023-05-22T01:12:39.486Z,92.14
2023-05-22T01:13:39.477Z,92.25
2023-05-22T01:14:39.521Z,92.75
2023-05-22T01:15:39.454Z,92.55
2023-05-22T01:16:39.660Z,92.65
2023-05-22T01:17:39.510Z,92.65
2023-05-22T01:18:39.421Z,92.75
2023-05-22T01:19:39.429Z,92.85
2023-05-22T01:20:39.631Z,93.05
2023-05-22T01:21:39.373Z,92.95
2023-05-22T01:22:39.396Z,92.99
2023-05-22T01:23:39.365Z,92.85
2023-05-22T01:24:39.404Z,92.85
2023-05-22T01:25:39.351Z,92.35
2023-05-22T01:26:39.311Z,92.35
2023-05-22T01:27:39.303Z,92.35
2023-05-22T01:28:39.339Z,92.25
2023-05-22T01:29:39.265Z,91.85
2023-05-22T01:30:39.505Z,91.74
2023-05-22T01:31:39.306Z,91.24
2023-05-22T01:32:39.305Z,91.24
2023-05-22T01:33:39.310Z,91.34
2023-05-22T01:34:39.218Z,91.44
2023-05-22T01:35:39.238Z,91.74
2023-05-22T01:36:39.240Z,91.74
2023-05-22T01:37:39.176Z,91.85
2023-05-22T01:38:39.150Z,91.94
2023-05-22T01:39:39.189Z,91.85
2023-05-22T01:40:39.346Z,92.05
2023-05-22T01:41:39.113Z,91.99
2023-05-22T01:42:39.094Z,91.99
2023-05-22T01:43:39.094Z,91.69
2023-05-22T01:44:39.097Z,91.85
2023-05-22T01:45:39.073Z,91.54
2023-05-22T01:46:39.122Z,91.64
2023-05-22T01:47:39.100Z,91.54
2023-05-22T01:48:39.112Z,91.64
2023-05-22T01:49:39.021Z,91.64
2023-05-22T01:50:39.188Z,91.44
2023-05-22T01:51:38.977Z,91.44
2023-05-22T01:52:38.961Z,91.34
2023-05-22T01:53:39.011Z,91.04
2023-05-22T01:54:38.939Z,90.84
2023-05-22T01:55:38.962Z,90.53
2023-05-22T01:56:38.904Z,90.33
2023-05-22T01:57:38.888Z,89.69
2023-05-22T01:58:38.920Z,89.59
2023-05-22T01:59:38.868Z,89.59
2023-05-22T02:00:39.032Z,89.69
2023-05-22T02:01:38.929Z,89.79
2023-05-22T02:02:38.949Z,89.93
2023-05-22T02:03:38.855Z,90.33
2023-05-22T02:04:38.818Z,90.53
2023-05-22T02:05:38.779Z,90.64
2023-05-22T02:06:38.773Z,91.04
2023-05-22T02:07:38.788Z,91.38
2023-05-22T02:08:38.752Z,91.58
2023-05-22T02:09:38.755Z,91.69
2023-05-22T02:10:39.018Z,91.78
2023-05-22T02:11:38.711Z,91.99
2023-05-22T02:12:38.750Z,91.99
2023-05-22T02:13:38.684Z,92.29
2023-05-22T02:14:38.660Z,92.19
2023-05-22T02:15:38.689Z,92.19
2023-05-22T02:16:38.644Z,92.33
2023-05-22T02:17:38.670Z,92.29
2023-05-22T02:18:38.622Z,92.33
2023-05-22T02:19:38.634Z,92.43
2023-05-22T02:20:38.898Z,92.43
2023-05-22T02:21:38.568Z,92.43
2023-05-22T02:22:38.580Z,92.54
2023-05-22T02:23:38.535Z,92.43
2023-05-22T02:24:38.538Z,92.43
2023-05-22T02:25:38.539Z,92.54
2023-05-22T02:26:38.514Z,92.43
2023-05-22T02:27:38.500Z,92.54
2023-05-22T02:28:38.489Z,92.43
2023-05-22T02:29:38.470Z,92.33
2023-05-22T02:30:38.882Z,92.33
2023-05-22T02:31:38.524Z,92.33
2023-05-22T02:32:38.494Z,92.43
2023-05-22T02:33:38.410Z,92.54
2023-05-22T02:34:38.397Z,92.63
2023-05-22T02:35:38.626Z,92.74
2023-05-22T02:36:38.438Z,92.83
2023-05-22T02:37:38.437Z,93.04
2023-05-22T02:38:38.695Z,93.04
2023-05-22T02:39:38.652Z,93.34
2023-05-22T02:40:38.590Z,93.34
2023-05-22T02:41:39.616Z,93.44
2023-05-22T02:42:38.733Z,93.69
2023-05-22T02:43:38.393Z,93.79
2023-05-22T02:44:38.407Z,94.19
2023-05-22T02:45:38.313Z,94.09
2023-05-22T02:46:38.607Z,94.09
2023-05-22T02:47:38.825Z,94.19
2023-05-22T02:48:38.239Z,94.49
2023-05-22T02:49:38.479Z,94.59
2023-05-22T02:50:38.726Z,94.70
2023-05-22T02:51:38.453Z,94.80
2023-05-22T02:52:40.534Z,94.94
2023-05-22T02:53:38.223Z,95.14
2023-05-22T02:54:38.556Z,95.00
2023-05-22T02:55:38.285Z,95.14
2023-05-22T02:56:38.792Z,95.10
2023-05-22T02:57:38.481Z,95.14
2023-05-22T02:58:38.397Z,95.00
2023-05-22T02:59:38.574Z,95.00
2023-05-22T03:00:38.668Z,95.25
2023-05-22T03:01:38.324Z,95.14
2023-05-22T03:02:38.365Z,95.14
2023-05-22T03:03:38.613Z,95.25
2023-05-22T03:04:38.671Z,95.14
2023-05-22T03:05:38.444Z,95.25
2023-05-22T03:06:38.680Z,95.45
2023-05-22T03:07:38.054Z,95.75
2023-05-22T03:08:38.484Z,95.85
2023-05-22T03:09:38.211Z,95.85
2023-05-22T03:10:38.872Z,96.00
2023-05-22T03:11:38.020Z,96.10
2023-05-22T03:12:38.180Z,96.40
2023-05-22T03:13:38.034Z,96.60
2023-05-22T03:14:38.815Z,96.60
2023-05-22T03:15:38.500Z,96.91
2023-05-22T03:16:38.156Z,96.91
2023-05-22T03:17:38.524Z,96.80
2023-05-22T03:18:39.089Z,96.91
2023-05-22T03:19:38.082Z,96.95
2023-05-22T03:20:39.209Z,97.05
2023-05-22T03:21:38.461Z,97.25
2023-05-22T03:22:37.958Z,97.45
2023-05-22T03:23:37.816Z,97.66
2023-05-22T03:24:38.066Z,97.56
2023-05-22T03:25:37.787Z,97.66
2023-05-22T03:26:38.069Z,97.66
2023-05-22T03:27:38.042Z,97.66
2023-05-22T03:28:38.142Z,97.76
2023-05-22T03:29:37.851Z,97.86
2023-05-22T03:30:38.397Z,97.80
2023-05-22T03:31:38.429Z,97.80
2023-05-22T03:32:38.480Z,98.41
2023-05-22T03:34:38.472Z,98.36
2023-05-22T03:35:38.054Z,98.56
2023-05-22T03:36:38.459Z,98.76
2023-05-22T03:37:37.990Z,99.07
2023-05-22T03:38:38.359Z,99.37
2023-05-22T03:39:37.619Z,99.27
2023-05-22T03:45:53.057Z,99.99
2023-05-22T03:46:40.296Z,99.99
2023-05-22T03:47:40.065Z,99.99
2023-05-22T03:48:40.067Z,99.99
2023-05-22T03:49:40.286Z,99.99
2023-05-22T03:50:40.391Z,99.99
2023-05-22T03:51:40.255Z,99.99
2023-05-22T03:52:40.091Z,99.99
2023-05-22T03:53:40.219Z,99.99
2023-05-22T03:54:40.031Z,99.99
2023-05-22T03:55:40.211Z,99.99
2023-05-22T03:56:39.984Z,99.99
2023-05-22T03:57:40.178Z,99.99
2023-05-22T03:58:40.062Z,99.99
2023-05-22T04:01:48.002Z,99.99
2023-05-22T04:02:48.326Z,99.99
2023-05-22T04:03:48.534Z,99.99
2023-05-22T04:04:47.823Z,99.99
2023-05-22T04:05:47.533Z,99.99
2023-05-22T04:06:47.433Z,99.99
2023-05-22T04:07:47.986Z,99.99
2023-05-22T04:08:47.938Z,99.99
2023-05-22T04:09:47.758Z,99.99
2023-05-22T04:15:18.002Z,99.99
2023-05-22T04:15:54.929Z,99.99
2023-05-22T04:16:49.081Z,99.99
2023-05-22T04:17:48.124Z,99.99
2023-05-22T04:19:42.688Z,99.99
2023-05-22T04:20:23.792Z,99.99
2023-05-22T04:21:20.397Z,99.99
2023-05-22T04:22:59.546Z,99.99
2023-05-22T04:24:28.009Z,99.99
2023-05-22T04:24:51.411Z,99.99
2023-05-22T04:26:04.878Z,99.99
2023-05-22T04:26:51.771Z,99.99
2023-05-22T04:28:01.511Z,99.99
2023-05-22T04:28:55.536Z,99.99
2023-05-22T04:29:55.769Z,99.99
2023-05-22T04:34:00.575Z,99.99
2023-05-22T04:34:59.772Z,99.99
2023-05-22T04:36:00.793Z,99.99
2023-05-22T04:37:01.103Z,99.99
2023-05-22T04:37:59.637Z,99.99
2023-05-22T04:39:00.709Z,99.99
2023-05-22T04:40:00.221Z,99.99
2023-05-22T04:40:59.260Z,99.99
2023-05-22T04:41:59.957Z,99.99
2023-05-22T04:43:00.009Z,99.99
2023-05-22T04:44:00.174Z,99.99
2023-05-22T04:45:00.506Z,99.99
2023-05-22T04:45:59.462Z,99.99
2023-05-22T04:46:59.732Z,99.99
2023-05-22T04:48:00.812Z,99.99
2023-05-22T04:48:59.837Z,99.99
2023-05-22T04:55:22.521Z,99.99
2023-05-22T04:56:34.772Z,99.99
2023-05-22T04:57:23.250Z,99.99
2023-05-22T04:58:22.715Z,99.99
2023-05-22T04:59:21.834Z,99.99
2023-05-22T05:03:09.599Z,99.99
2023-05-22T05:04:08.876Z,99.99
2023-05-22T05:05:08.686Z,99.99
2023-05-22T05:06:08.428Z,99.99
2023-05-22T05:07:09.329Z,99.99
2023-05-22T05:08:08.798Z,99.99
2023-05-22T05:09:09.270Z,99.99
2023-05-22T05:12:57.181Z,99.99
2023-05-22T05:13:45.397Z,99.99
2023-05-22T05:15:40.948Z,99.99
2023-05-22T05:16:42.033Z,99.99
2023-05-22T05:17:41.294Z,99.99
2023-05-22T05:18:41.372Z,99.99
2023-05-22T05:19:41.070Z,99.99
2023-05-22T05:20:42.109Z,99.99
2023-05-22T05:21:40.761Z,99.99
2023-05-22T05:22:41.670Z,99.99
2023-05-22T05:23:40.806Z,99.99
2023-05-22T05:24:41.356Z,99.99
2023-05-22T05:25:40.886Z,99.99
2023-05-22T05:26:40.742Z,99.99
2023-05-22T05:27:40.707Z,99.99
2023-05-22T05:28:40.604Z,99.99
2023-05-22T05:29:40.544Z,99.99
2023-05-22T05:30:40.968Z,99.99
2023-05-22T05:31:40.945Z,99.99
2023-05-22T05:32:40.978Z,99.99
2023-05-22T05:33:40.620Z,99.99
2023-05-22T05:34:40.994Z,99.99
2023-05-22T05:35:42.849Z,99.99
2023-05-22T05:36:40.810Z,99.99
2023-05-22T05:37:40.428Z,99.99
2023-05-22T05:38:40.564Z,99.99
2023-05-22T05:39:40.538Z,99.99
2023-05-22T05:40:40.704Z,99.99
2023-05-22T05:41:40.465Z,99.99
2023-05-22T05:42:40.522Z,99.99
2023-05-22T05:43:40.366Z,99.99
2023-05-22T05:44:40.929Z,99.99
2023-05-22T05:45:40.526Z,99.99
2023-05-22T05:46:40.335Z,99.99
2023-05-22T05:47:40.460Z,99.99
2023-05-22T05:48:40.206Z,99.99
2023-05-22T05:49:40.249Z,99.99
2023-05-22T05:50:40.495Z,99.99
2023-05-22T05:51:41.023Z,99.99
2023-05-22T05:52:40.319Z,99.99
2023-05-22T05:53:40.311Z,99.99
2023-05-22T05:54:40.322Z,99.99
2023-05-22T05:55:40.297Z,99.99
2023-05-22T05:56:40.448Z,99.99
2023-05-22T05:57:40.144Z,99.99
2023-05-22T05:58:40.662Z,99.99
2023-05-22T05:59:40.273Z,99.99
2023-05-22T06:03:59.924Z,99.99
2023-05-22T06:04:59.773Z,99.99
2023-05-22T06:05:59.758Z,99.99
2023-05-22T06:07:02.209Z,99.99
2023-05-22T06:08:01.497Z,99.99
2023-05-22T06:08:59.578Z,99.99
2023-05-22T06:09:59.488Z,99.95
2023-05-22T06:10:59.510Z,99.95
2023-05-22T06:11:59.805Z,99.99
2023-05-22T06:12:59.691Z,99.50
2023-05-22T06:13:59.410Z,99.50
2023-05-22T06:14:59.709Z,99.50
2023-05-22T06:16:02.181Z,99.19
2023-05-22T06:16:59.437Z,99.05
2023-05-22T06:18:00.573Z,98.44
2023-05-22T06:18:59.498Z,97.84
2023-05-22T06:19:59.502Z,97.74
2023-05-22T06:20:59.397Z,97.44
2023-05-22T06:21:59.335Z,96.93
2023-05-22T06:22:59.352Z,96.83
2023-05-22T06:23:59.528Z,96.53
2023-05-22T06:25:00.359Z,96.08
2023-05-22T06:26:01.167Z,95.38
2023-05-22T06:26:59.437Z,95.28
2023-05-22T06:27:59.279Z,95.18
2023-05-22T06:28:59.493Z,95.38
2023-05-22T06:29:59.334Z,95.38
2023-05-22T06:30:59.289Z,95.58
2023-05-22T06:32:02.609Z,95.48
2023-05-22T06:32:59.327Z,95.03
2023-05-22T06:33:59.608Z,95.13
2023-05-22T06:34:59.569Z,94.83
2023-05-22T06:35:59.701Z,94.53
2023-05-22T06:36:59.221Z,94.59
2023-05-22T06:37:59.224Z,94.38
2023-05-22T06:38:59.642Z,94.28
2023-05-22T06:39:59.262Z,94.24
2023-05-22T06:40:59.161Z,94.44
2023-05-22T06:41:59.217Z,93.54
2023-05-22T06:42:59.054Z,92.33
2023-05-22T06:43:59.079Z,92.23
2023-05-22T06:44:59.412Z,92.08
2023-05-22T06:45:59.465Z,92.29
2023-05-22T06:46:59.149Z,91.99
2023-05-22T06:48:00.368Z,91.24
2023-05-22T06:48:59.254Z,90.64
2023-05-22T06:49:59.015Z,90.64
2023-05-22T06:50:59.063Z,90.64
2023-05-22T06:51:59.222Z,90.64
2023-05-22T06:52:59.359Z,91.03
2023-05-22T06:53:59.040Z,91.09
2023-05-22T06:54:59.209Z,90.59
2023-05-22T06:55:58.880Z,90.19
2023-05-22T06:56:58.842Z,89.69
2023-05-22T06:57:59.114Z,89.25
2023-05-22T06:58:58.950Z,89.25
2023-05-22T06:59:58.943Z,89.04
2023-05-22T07:00:58.838Z,89.04
2023-05-22T07:01:58.756Z,88.80
2023-05-22T07:02:59.118Z,88.14
2023-05-22T07:03:58.939Z,88.44
2023-05-22T07:04:58.712Z,88.30
2023-05-22T07:05:58.887Z,87.00
2023-05-22T07:06:58.770Z,87.20
2023-05-22T07:07:58.670Z,87.10
2023-05-22T07:08:58.783Z,87.50
2023-05-22T07:09:59.597Z,87.40
2023-05-22T07:10:58.627Z,87.00
2023-05-22T07:11:58.665Z,86.46
2023-05-22T07:12:58.817Z,86.35
2023-05-22T07:13:58.646Z,86.52
2023-05-22T07:14:58.720Z,86.32
2023-05-22T07:15:58.629Z,85.82
2023-05-22T07:16:58.666Z,85.91
2023-05-22T07:17:58.626Z,86.32
2023-05-22T07:18:58.635Z,86.52
2023-05-22T07:19:58.551Z,87.12
2023-05-22T07:22:21.749Z,86.91
2023-05-22T07:23:12.993Z,87.21
2023-05-22T07:24:12.307Z,86.82
2023-05-22T07:25:12.481Z,87.21
2023-05-22T07:27:03.254Z,87.92
2023-05-22T07:28:03.264Z,88.07
2023-05-22T07:29:03.048Z,87.77
2023-05-22T07:30:03.149Z,87.98
2023-05-22T07:31:03.130Z,88.07
2023-05-22T07:32:04.061Z,87.87
2023-05-22T07:33:03.090Z,87.77
2023-05-22T07:34:03.016Z,88.03
2023-05-22T07:35:11.511Z,87.73
2023-05-22T07:36:10.604Z,87.93
2023-05-22T07:37:03.032Z,87.03
2023-05-22T07:38:03.003Z,87.23
2023-05-22T07:40:28.198Z,87.43
2023-05-22T07:41:28.053Z,87.63
2023-05-22T07:42:27.973Z,87.53
2023-05-22T07:43:27.861Z,87.34
2023-05-22T07:44:27.838Z,87.68
2023-05-22T07:45:27.816Z,87.87
2023-05-22T07:46:28.005Z,88.07
2023-05-22T07:47:28.114Z,87.62
2023-05-22T07:48:27.843Z,88.21
2023-05-22T07:49:28.454Z,88.62
2023-05-22T07:50:27.798Z,88.92
2023-05-22T07:51:27.767Z,88.92
2023-05-22T07:52:27.782Z,88.87
2023-05-22T07:53:27.759Z,88.21
2023-05-22T07:54:27.804Z,88.18
2023-05-22T07:55:27.689Z,87.68
2023-05-22T07:56:27.653Z,87.48
2023-05-22T07:57:27.626Z,87.57
2023-05-22T07:58:27.689Z,87.27
2023-05-22T07:59:27.596Z,87.07
2023-05-22T08:00:27.595Z,87.18
2023-05-22T08:01:27.584Z,87.57
2023-05-22T08:02:27.609Z,87.34
2023-05-22T08:03:27.699Z,87.13
2023-05-22T08:04:27.701Z,86.39
2023-05-22T08:05:27.546Z,86.23
2023-05-22T08:06:27.512Z,86.93
2023-05-22T08:07:27.494Z,87.13
2023-05-22T08:08:28.847Z,86.98
2023-05-22T08:09:27.506Z,87.77
2023-05-22T08:10:30.098Z,88.18
2023-05-22T08:11:28.452Z,87.13
2023-05-22T08:12:27.409Z,87.53
2023-05-22T08:13:27.433Z,87.73
2023-05-22T08:14:27.400Z,87.03
2023-05-22T08:15:27.378Z,86.83
2023-05-22T08:16:27.415Z,86.69
2023-05-22T08:17:27.471Z,86.19
2023-05-22T08:18:27.519Z,86.29
2023-05-22T08:19:27.462Z,86.09
2023-05-22T08:20:27.425Z,86.03
2023-05-22T08:21:27.355Z,85.83
2023-05-22T08:22:27.350Z,85.53
2023-05-22T08:23:27.301Z,85.73
2023-05-22T08:24:27.321Z,85.93
2023-05-22T08:25:27.303Z,85.43
2023-05-22T08:26:27.247Z,85.39
2023-05-22T08:27:27.251Z,85.09
2023-05-22T08:28:27.213Z,85.39
2023-05-22T08:29:27.244Z,85.69
2023-05-22T08:30:27.265Z,85.23
2023-05-22T08:31:27.239Z,86.03
2023-05-22T08:32:29.177Z,85.73
2023-05-22T08:33:27.223Z,85.43
2023-05-22T08:34:27.144Z,85.83
2023-05-22T08:35:27.147Z,85.93
2023-05-22T08:36:27.146Z,85.99
2023-05-22T08:37:27.104Z,86.39
2023-05-22T08:38:27.108Z,86.13
2023-05-22T08:39:27.093Z,86.37
2023-05-22T08:40:27.056Z,86.98
2023-05-22T08:41:27.058Z,87.27
2023-05-22T08:42:27.080Z,86.73
2023-05-22T08:43:27.030Z,85.93
2023-05-22T08:44:27.011Z,85.83
2023-05-22T08:45:26.976Z,86.13
2023-05-22T08:46:27.033Z,86.09
2023-05-22T08:47:26.995Z,85.39
2023-05-22T08:48:27.022Z,84.53
2023-05-22T08:49:26.999Z,84.83
2023-05-22T08:50:26.934Z,84.93
2023-05-22T08:51:26.896Z,85.29
2023-05-22T08:52:26.900Z,85.59
2023-05-22T08:53:26.995Z,84.55
2023-05-22T08:54:26.859Z,84.39
2023-05-22T08:55:26.890Z,84.89
2023-05-22T08:56:29.372Z,85.13
2023-05-22T08:57:26.833Z,85.43
2023-05-22T08:58:26.821Z,85.43
2023-05-22T08:59:26.944Z,84.43
2023-05-22T09:00:26.830Z,84.63
2023-05-22T09:01:26.807Z,84.39
2023-05-22T09:02:26.770Z,84.39
2023-05-22T09:03:26.822Z,83.89
2023-05-22T09:04:26.807Z,84.29
2023-05-22T09:05:26.960Z,84.39
2023-05-22T09:06:26.699Z,84.89
2023-05-22T09:07:26.756Z,84.19
2023-05-22T09:08:26.715Z,84.07
2023-05-22T09:09:26.729Z,85.61
2023-05-22T09:10:26.710Z,86.52
2023-05-22T09:11:26.687Z,86.82
2023-05-22T09:12:26.698Z,87.32
2023-05-22T09:13:26.732Z,87.07
2023-05-22T09:14:26.697Z,85.57
2023-05-22T09:15:26.622Z,85.87
2023-05-22T09:16:26.644Z,85.77
2023-05-22T09:17:26.605Z,85.68
2023-05-22T09:18:26.611Z,84.87
2023-05-22T09:19:26.598Z,85.77
2023-05-22T09:20:26.541Z,84.47
2023-05-22T09:21:30.190Z,85.82
2023-05-22T09:22:26.532Z,86.35
2023-05-22T09:23:26.517Z,86.55
2023-05-22T09:24:26.462Z,86.46
2023-05-22T09:25:26.512Z,86.66
2023-05-22T09:26:26.503Z,86.16
2023-05-22T09:27:26.487Z,86.90
2023-05-22T09:28:26.472Z,87.10
2023-05-22T09:29:26.520Z,87.30
2023-05-22T09:30:26.390Z,86.40
2023-05-22T09:31:26.501Z,87.10
2023-05-22T09:32:26.429Z,86.50
2023-05-22T09:33:26.396Z,86.60
2023-05-22T09:34:26.338Z,86.66
2023-05-22T09:35:26.378Z,86.46
2023-05-22T09:36:26.330Z,86.25
2023-05-22T09:37:26.318Z,86.25
2023-05-22T09:38:26.331Z,86.01
2023-05-22T09:39:26.295Z,85.71
2023-05-22T09:40:26.282Z,84.77
2023-05-22T09:41:26.365Z,85.21
2023-05-22T09:42:26.264Z,86.05
2023-05-22T09:43:26.229Z,85.91
2023-05-22T09:44:26.277Z,85.11
2023-05-22T09:45:26.317Z,85.21
2023-05-22T09:46:26.351Z,85.71
2023-05-22T09:47:26.210Z,86.16
2023-05-22T09:48:26.212Z,87.26
2023-05-22T09:49:26.213Z,86.35
2023-05-22T09:50:26.197Z,86.32
2023-05-22T09:51:26.144Z,85.57
2023-05-22T09:52:26.126Z,84.61
2023-05-22T09:53:26.185Z,85.75
2023-05-22T09:54:26.084Z,85.55
2023-05-22T09:55:26.074Z,85.15
2023-05-22T09:56:37.813Z,85.60
2023-05-22T09:57:27.068Z,85.99
2023-05-22T09:58:26.006Z,86.44
2023-05-22T09:59:26.034Z,87.04
2023-05-22T10:00:26.049Z,86.40
2023-05-22T10:01:26.048Z,87.00
2023-05-22T10:02:26.049Z,86.50
2023-05-22T10:03:25.982Z,86.85
2023-05-22T10:04:26.009Z,86.05
2023-05-22T10:05:25.952Z,85.75
2023-05-22T10:06:25.930Z,86.25
2023-05-22T10:07:25.912Z,85.75
2023-05-22T10:08:25.921Z,85.55
2023-05-22T10:09:25.942Z,85.85
2023-05-22T10:10:25.901Z,85.21
2023-05-22T10:11:25.894Z,84.91
2023-05-22T10:12:25.866Z,84.67
2023-05-22T10:13:25.840Z,83.73
2023-05-22T10:14:25.857Z,82.93
2023-05-22T10:15:25.824Z,83.49
2023-05-22T10:16:25.874Z,83.29
2023-05-22T10:17:25.805Z,81.45
2023-05-22T10:18:25.770Z,81.65
2023-05-22T10:19:25.826Z,81.56
2023-05-22T10:20:25.742Z,81.69
2023-05-22T10:21:25.765Z,81.59
2023-05-22T10:22:25.749Z,81.49
2023-05-22T10:23:25.687Z,81.29
2023-05-22T10:24:25.711Z,81.19
2023-05-22T10:25:25.663Z,81.59
2023-05-22T10:26:25.685Z,80.19
2023-05-22T10:27:25.719Z,80.53
2023-05-22T10:28:25.623Z,82.03
2023-05-22T10:29:25.635Z,81.99
2023-05-22T10:30:25.610Z,81.09
2023-05-22T10:31:25.618Z,81.89
2023-05-22T10:32:25.645Z,81.69
2023-05-22T10:33:25.613Z,81.05
2023-05-22T10:34:25.557Z,82.15
2023-05-22T10:35:25.516Z,81.12
2023-05-22T10:36:25.538Z,79.91
2023-05-22T10:37:25.508Z,80.77
2023-05-22T10:38:25.471Z,79.28
2023-05-22T10:39:25.535Z,79.32
2023-05-22T10:40:25.537Z,78.92
2023-05-22T10:41:37.951Z,78.61
2023-05-22T10:42:26.472Z,79.41
2023-05-22T10:43:25.533Z,79.08
2023-05-22T10:44:25.436Z,79.28
2023-05-22T10:45:25.421Z,79.34
2023-05-22T10:46:25.544Z,78.24
2023-05-22T10:47:25.474Z,78.50
2023-05-22T10:48:25.344Z,77.87
2023-05-22T10:49:25.350Z,75.87
2023-05-22T10:50:25.340Z,76.15
2023-05-22T10:51:25.356Z,76.54
2023-05-22T10:52:25.325Z,77.64
2023-05-22T10:53:25.326Z,79.04
2023-05-22T10:54:25.319Z,78.00
2023-05-22T10:55:25.300Z,77.17
2023-05-22T10:56:25.872Z,76.64
2023-05-22T10:57:25.236Z,76.43
2023-05-22T10:58:25.219Z,76.20
2023-05-22T10:59:25.230Z,74.80
2023-05-22T11:00:25.254Z,75.44
2023-05-22T11:01:25.234Z,75.64
2023-05-22T11:02:25.424Z,75.14
2023-05-22T11:03:25.252Z,76.14
2023-05-22T11:04:25.200Z,75.60
2023-05-22T11:05:25.183Z,77.06
2023-05-22T11:06:25.119Z,74.37
2023-05-22T11:07:25.200Z,74.17
2023-05-22T11:08:25.137Z,74.71
2023-05-22T11:09:25.113Z,75.07
2023-05-22T11:10:25.155Z,74.54
2023-05-22T11:11:25.085Z,73.77
2023-05-22T11:12:25.104Z,74.30
2023-05-22T11:13:26.426Z,75.74
2023-05-22T11:14:25.075Z,75.64
2023-05-22T11:15:25.014Z,76.70
2023-05-22T11:16:25.061Z,75.80
2023-05-22T11:17:24.991Z,76.17
2023-05-22T11:18:25.069Z,74.67
2023-05-22T11:19:25.006Z,74.54
2023-05-22T11:20:24.952Z,73.54
2023-05-22T11:21:24.970Z,73.18
2023-05-22T11:22:24.933Z,74.67
2023-05-22T11:23:25.022Z,73.44
2023-05-22T11:24:24.920Z,73.77
2023-05-22T11:25:24.952Z,74.37
2023-05-22T11:26:26.390Z,75.40
2023-05-22T11:27:24.847Z,72.04
2023-05-22T11:28:24.902Z,71.37
2023-05-22T11:29:24.838Z,70.91
2023-05-22T11:30:24.831Z,68.57
2023-05-22T11:31:24.858Z,67.84
2023-05-22T11:32:24.836Z,67.64
2023-05-22T11:33:24.826Z,67.44
2023-05-22T11:34:24.785Z,68.43
2023-05-22T11:35:24.771Z,70.81
2023-05-22T11:36:24.719Z,71.81
2023-05-22T11:37:24.724Z,71.78
2023-05-22T11:38:24.774Z,73.00
2023-05-22T11:39:24.682Z,72.50
2023-05-22T11:40:24.691Z,71.58
2023-05-22T11:41:24.705Z,70.81
2023-05-22T11:42:24.797Z,71.51
2023-05-22T11:43:24.652Z,71.84
2023-05-22T11:44:24.664Z,72.44
2023-05-22T11:45:26.270Z,72.11
2023-05-22T11:46:24.658Z,71.58
2023-05-22T11:47:24.679Z,72.01
2023-05-22T11:48:24.614Z,72.20
2023-05-22T11:49:24.548Z,71.48
2023-05-22T11:50:40.193Z,70.38
2023-05-22T11:51:25.514Z,68.17
2023-05-22T11:52:24.535Z,68.63
2023-05-22T11:53:24.508Z,69.39
2023-05-22T11:54:24.529Z,70.68
2023-05-22T11:55:34.833Z,70.09
2023-05-22T11:56:24.562Z,68.13
2023-05-22T11:57:27.990Z,67.61
2023-05-22T11:58:24.420Z,68.90
2023-05-22T11:59:24.493Z,70.98
2023-05-22T12:00:24.502Z,72.14
2023-05-22T12:01:24.378Z,72.60
2023-05-22T12:02:24.544Z,73.60
2023-05-22T12:03:25.852Z,71.44
2023-05-22T12:04:24.391Z,72.17
2023-05-22T12:05:24.348Z,69.02
2023-05-22T12:06:24.589Z,71.31
2023-05-22T12:07:24.429Z,69.39
2023-05-22T12:08:26.958Z,69.26
2023-05-22T12:09:24.488Z,71.01
2023-05-22T12:10:24.439Z,71.78
2023-05-22T12:11:25.724Z,71.18
2023-05-22T12:12:26.602Z,71.91
2023-05-22T12:14:47.638Z,72.76
2023-05-22T12:15:47.674Z,69.76
2023-05-22T12:16:48.147Z,68.63
2023-05-22T12:17:48.961Z,71.27
2023-05-22T12:18:48.216Z,68.40
2023-05-22T12:19:48.333Z,64.18
2023-05-22T12:20:47.423Z,64.51
2023-05-22T12:21:47.484Z,67.24
2023-05-22T12:22:47.444Z,70.71
2023-05-22T12:23:47.395Z,69.72
2023-05-22T12:24:47.531Z,68.27
2023-05-22T12:25:47.530Z,67.71
2023-05-22T12:26:47.347Z,68.01
2023-05-22T12:27:47.378Z,69.23
2023-05-22T12:28:47.317Z,66.42
2023-05-22T12:29:47.345Z,65.41
2023-05-22T12:30:47.360Z,65.67
2023-05-22T12:31:47.397Z,65.53
2023-05-22T12:32:47.410Z,66.69
2023-05-22T12:33:47.319Z,64.58
2023-05-22T12:34:47.238Z,64.61
2023-05-22T12:35:47.278Z,66.36
2023-05-22T12:36:47.282Z,66.65
2023-05-22T12:37:47.231Z,69.06
2023-05-22T12:38:47.341Z,67.64
2023-05-22T12:39:47.201Z,69.65
2023-05-22T12:40:47.502Z,70.15
2023-05-22T12:41:47.178Z,70.28
2023-05-22T12:42:47.228Z,71.01
2023-05-22T12:43:47.279Z,68.63
2023-05-22T12:44:47.166Z,67.18
2023-05-22T12:45:47.391Z,68.27
2023-05-22T12:46:47.230Z,67.84
2023-05-22T12:47:47.170Z,68.50
2023-05-22T12:48:47.090Z,69.29
2023-05-22T12:49:47.100Z,69.85
2023-05-22T12:50:47.039Z,68.10
2023-05-22T12:51:46.983Z,69.36
2023-05-22T12:52:46.988Z,70.75
2023-05-22T12:53:47.037Z,72.86
2023-05-22T12:54:47.033Z,73.99
2023-05-22T12:55:53.962Z,74.39
2023-05-22T12:56:46.972Z,75.74
2023-05-22T12:57:46.997Z,73.96
2023-05-22T12:58:46.964Z,74.91
2023-05-22T12:59:46.982Z,70.09
2023-05-22T13:00:46.949Z,69.32
2023-05-22T13:01:46.883Z,71.99
2023-05-22T13:02:46.879Z,68.53
2023-05-22T13:03:46.840Z,65.57
2023-05-22T13:04:46.913Z,66.06
2023-05-22T13:05:46.845Z,66.65
2023-05-22T13:06:46.806Z,68.43
2023-05-22T13:07:46.805Z,70.15
2023-05-22T13:08:46.770Z,70.18
2023-05-22T13:09:46.757Z,70.25
2023-05-22T13:10:46.986Z,71.88
2023-05-22T13:11:46.773Z,72.80
2023-05-22T13:12:46.744Z,71.54
2023-05-22T13:13:46.710Z,71.08
2023-05-22T13:14:46.705Z,69.49
2023-05-22T13:15:46.682Z,69.06
2023-05-22T13:16:46.693Z,68.70
2023-05-22T13:17:46.717Z,67.51
2023-05-22T13:18:46.697Z,67.91
2023-05-22T13:19:46.671Z,68.57
2023-05-22T13:20:46.668Z,66.62
2023-05-22T13:21:46.750Z,66.09
2023-05-22T13:22:46.593Z,65.41
2023-05-22T13:23:46.632Z,64.68
2023-05-22T13:24:46.933Z,63.56
2023-05-22T13:25:46.678Z,63.86
2023-05-22T13:26:46.545Z,65.17
2023-05-22T13:27:46.594Z,65.34
2023-05-22T13:28:46.526Z,63.66